This is the latest recevied weather packets stored in our database for station/object WC4PEM-1. If no packets are shown the sender has not sent any weather packets the latest 10 day(s).
| Time | Temp. | Humidity | Pressure | Rain* | Wind** | Luminosity | Snow |
|---|---|---|---|---|---|---|---|
| 1777658614 | 31.11° C | 49% | 1010.3 hPa | 0 mm | - | 276 W/m² | - |
| 1777658314 | 31.11° C | 48% | 1010.4 hPa | 0 mm | - | 246 W/m² | - |
| 1777658015 | 31.67° C | 47% | 1010.4 hPa | 0 mm | - | 735 W/m² | - |
| 1777657715 | 32.78° C | 45% | 1010.4 hPa | 0 mm | - | 1056 W/m² | - |
| 1777657551 | 33.33° C | 43% | 1010.6 hPa | 0 mm | - | 297 W/m² | - |
| 1777657414 | 33.33° C | 43% | 1010.6 hPa | 0 mm | - | 297 W/m² | - |
| 1777657114 | 33.33° C | 44% | 1010.7 hPa | 0 mm | - | 1102 W/m² | - |
| 1777656814 | 32.22° C | 47% | 1010.7 hPa | 0 mm | - | 1148 W/m² | - |
| 1777656710 | 31.67° C | 48% | 1010.8 hPa | 0 mm | - | 373 W/m² | - |
| 1777656514 | 31.67° C | 48% | 1010.8 hPa | 0 mm | - | 373 W/m² | - |
| 1777656500 | 31.67° C | 47% | 1010.8 hPa | 0 mm | - | 272 W/m² | - |
| 1777656215 | 31.67° C | 47% | 1010.8 hPa | 0 mm | - | 272 W/m² | - |
| 1777655914 | 32.22° C | 48% | 1010.8 hPa | 0 mm | - | 1027 W/m² | - |
| 1777655614 | 32.22° C | 47% | 1010.8 hPa | 0 mm | - | 1009 W/m² | - |
| 1777655315 | 31.67° C | 49% | 1010.9 hPa | 0 mm | - | 1020 W/m² | - |
| 1777655014 | 31.67° C | 48% | 1011 hPa | 0 mm | - | 199 W/m² | - |
| 1777654838 | 31.67° C | 48% | 1011.1 hPa | 0 mm | - | 195 W/m² | - |
| 1777654715 | 31.67° C | 48% | 1011.1 hPa | 0 mm | - | 195 W/m² | - |
| 1777654415 | 32.22° C | 46% | 1011.1 hPa | 0 mm | - | 1049 W/m² | - |
| 1777654146 | 32.78° C | 46% | 1011.1 hPa | 0 mm | - | 1023 W/m² | - |
| 1777654115 | 32.78° C | 46% | 1011.1 hPa | 0 mm | - | 1023 W/m² | - |
| 1777653814 | 32.78° C | 47% | 1011.1 hPa | 0 mm | - | 984 W/m² | - |
| 1777653515 | 32.22° C | 49% | 1011.2 hPa | 0 mm | - | 977 W/m² | - |
| 1777653372 | 32.22° C | 48% | 1011.2 hPa | 0 mm | - | 954 W/m² | - |
| 1777653215 | 32.22° C | 48% | 1011.2 hPa | 0 mm | - | 954 W/m² | - |
* Rain latest hour (hover to see other rain measurements)
** Current wind speed in m/s (hover to see current wind gust speed)